Aérodrome :







RETROUVEZ-NOUS SUR...

 
LOGIN :

S'inscrire | Disclaimer

   EN    FR    IT 

 









Légende :    VFR   VFR Marginal   IFR   IFR Intensif   IFR Très Intensif
Visi : 
Plafond : 
>= 8 km
>= 3000ft
5 à 8 km
1000 à 3000 ft
1500m à 5 km
500 à 1000 ft
800 à 1500m
200 à 500 ft
< 800m
< 200 ft
Symboles :   Orages  Brouillard  Fortes neiges  Fortes précipitations  Vent > 20 kt






- Altitude de l'aérodrome : 408 ft


KMLT - Millinocket Municipal

DERNIER METAR :
  • 120510Z AUTO 04007KT 1 1/4SM -SN BR OVC016 M06/M08 A3010 RMK AO2 P0001 T10561078

METARs EXPIRÉS :
  • 120453Z AUTO 04009KT 1SM -SN BR VV012 M06/M08 A3012 RMK AO2 SLP211 P0004 T10561078 400441056
  • 120439Z AUTO 05008KT 1SM -SN BR VV011 M06/M07 A3013 RMK AO2 P0004 T10561072
  • 120423Z AUTO 03005KT 1/2SM SN FZFG VV008 M06/M07 A3015 RMK AO2 P0003 T10561072
  • 120353Z AUTO 05008KT 3/4SM -SN BR VV010 M06/M07 A3017 RMK AO2 SLP227 P0003 T10561072
  • 120339Z AUTO 05006KT 1/2SM SN FZFG VV009 M05/M07 A3017 RMK AO2 P0002 T10501072
  • 120305Z AUTO 07010KT 3/4SM -SN BR OVC013 M05/M07 A3019 RMK AO2 P0000 T10501072
  • 120253Z AUTO 08007KT 1SM -SN BR OVC014 M05/M07 A3019 RMK AO2 SLP236 P0002 60006 T10501067 56015

TAF N/A



MET'MAP, la Météo Aéronautique d'un coup d'oeil ! - Copyright ORBIFLY Décembre 2007 - Disclaimer

ORBIFLY MET'MAP TEAM :

Programmation & Développement : Alexandra Zaïnal
Conception & Développement : Baudouin d'Aumeries
Co-Programmation & Développement : Marc-Olivier Méhu
Soutien technique & logistique : Manuel Goepfert

Contact : metmap@orbifly.com




SOURCES & CREDITS :

   NOAA